CDT,Max TemperatureF,Mean TemperatureF,Min TemperatureF,Max Dew PointF,MeanDew PointF,Min DewpointF,Max Humidity, Mean Humidity, Min Humidity, Max Sea Level PressureIn, Mean Sea Level PressureIn, Min Sea Level PressureIn, Max VisibilityMiles, Mean VisibilityMiles, Min VisibilityMiles, Max Wind SpeedMPH, Mean Wind SpeedMPH, Max Gust SpeedMPH,PrecipitationIn, CloudCover, Events, WindDirDegrees
2011-9-1,91,74,57,77,64,57,100,94,59,29.97,29.91,29.76,10,3,0,16,4,21,0.00,0,Fog,150
2011-9-2,83,74,66,76,70,66,100,97,67,29.94,29.89,29.73,10,5,0,39,7,52,1.47,3,Fog-Rain-Thunderstorm,245
2011-9-3,74,68,57,74,69,58,100,99,87,29.92,29.87,29.83,10,8,2,12,4,,0.48,4,Rain-Thunderstorm,212
2011-9-4,68,58,46,61,54,47,100,90,59,30.16,30.02,29.91,10,10,7,18,9,26,0.00,4,Rain,310
2011-9-5,66,51,37,55,43,37,100,96,50,30.24,30.20,30.16,10,3,0,9,4,,0.00,0,Fog,281
2011-9-6,69,50,33,54,39,34,100,97,46,30.29,30.23,30.20,10,2,0,6,0,,0.00,0,Fog,284
2011-9-7,73,53,33,59,41,34,100,94,47,30.31,30.26,30.23,10,3,0,9,1,,0.00,0,Fog,302
2011-9-8,79,60,42,61,50,43,100,91,43,30.28,30.21,30.07,10,5,0,14,6,,0.00,0,Fog,291
2011-9-9,78,61,44,64,50,45,100,95,40,30.07,30.04,29.99,10,2,0,9,2,,0.00,0,Fog,303
2011-9-10,82,62,41,66,52,41,100,86,45,30.08,30.04,30.01,10,8,0,6,3,,0.00,0,Fog,294
2011-9-11,82,65,48,66,53,48,100,97,52,30.02,30.00,29.93,10,3,0,10,1,,0.00,0,Fog,124
2011-9-12,84,66,48,70,59,48,100,74,45,29.94,29.83,29.68,10,8,1,17,5,26,0.00,1,Fog,224
2011-9-13,69,58,48,57,47,45,88,68,43,30.01,29.94,29.78,10,10,10,16,10,24,0.00,3,,309
2011-9-14,57,45,33,47,36,30,100,67,38,30.31,30.17,29.98,10,10,9,17,8,24,0.00,3,,318
2011-9-15,58,42,28,39,34,28,100,79,38,30.46,30.39,30.32,10,10,10,9,5,,0.00,1,,310
2011-9-16,57,44,30,47,37,30,100,92,48,30.40,30.35,30.31,10,5,1,8,1,,0.00,3,,141
2011-9-17,68,49,31,50,36,32,100,95,42,30.34,30.31,30.18,10,3,0,15,4,21,0.01,1,Fog,114
2011-9-18,59,56,52,59,54,50,100,99,80,30.20,30.13,30.00,10,7,1,13,7,17,0.70,8,Rain,125
2011-9-19,69,55,42,57,49,43,100,97,56,30.02,30.01,29.96,10,3,0,12,3,,0.00,1,Fog,307
2011-9-20,71,56,41,63,48,41,100,95,60,30.01,29.96,29.79,10,5,0,14,2,26,0.04,2,Fog-Rain,154
2011-9-21,63,56,51,54,51,45,100,83,61,30.00,29.90,29.78,10,10,10,22,11,28,0.00,6,,249
2011-9-22,53,48,44,52,48,41,100,95,62,30.14,30.03,29.99,10,10,5,13,9,,0.01,7,Rain,295
2011-9-23,58,50,44,52,47,41,100,88,62,30.17,30.09,30.05,10,10,10,9,4,,0.02,6,Rain,319
2011-9-24,59,49,41,52,45,41,100,98,66,30.10,30.06,30.03,10,3,0,9,2,,0.00,2,Fog-Rain,28
2011-9-25,60,46,33,59,43,34,100,100,88,30.05,29.98,29.87,10,4,0,12,3,18,0.01,4,Fog-Rain,304
2011-9-26,62,55,48,61,54,48,100,98,67,29.89,29.77,29.58,10,8,2,18,4,28,0.03,7,Rain,28
2011-9-27,60,51,42,57,51,43,100,99,82,29.88,29.83,29.78,10,9,0,8,5,,0.00,6,Fog-Rain,345
2011-9-28,67,54,39,61,48,39,100,97,60,29.91,29.86,29.81,10,4,0,9,3,,0.01,5,Fog,286
2011-9-29,66,54,44,59,49,39,100,92,56,29.89,29.73,29.60,10,6,0,28,7,44,0.11,4,Fog-Rain-Thunderstorm,285
2011-9-30,59,46,34,46,41,34,100,76,48,30.30,30.12,29.91,10,10,10,16,12,26,0.00,1,,333